sensor_id;sensor_type;location;lat;lon;timestamp;pressure;altitude;pressure_sealevel;temperature;humidity
5595;BME280;1003;48.002;7.788;2023-07-13T00:02:26;98558.88;;;20.15;100.00
5595;BME280;1003;48.002;7.788;2023-07-13T00:04:56;98654.66;;;20.21;100.00
5595;BME280;1003;48.002;7.788;2023-07-13T00:07:24;98693.97;;;20.32;100.00
5595;BME280;1003;48.002;7.788;2023-07-13T00:09:52;98701.47;;;20.35;100.00
5595;BME280;1003;48.002;7.788;2023-07-13T00:12:25;98739.66;;;20.37;100.00
5595;BME280;1003;48.002;7.788;2023-07-13T00:14:53;98782.94;;;20.38;100.00
5595;BME280;1003;48.002;7.788;2023-07-13T00:17:20;98810.06;;;20.41;100.00
5595;BME280;1003;48.002;7.788;2023-07-13T00:19:47;98824.47;;;20.42;100.00
5595;BME280;1003;48.002;7.788;2023-07-13T00:22:14;98833.94;;;20.40;100.00
5595;BME280;1003;48.002;7.788;2023-07-13T00:24:43;98842.56;;;20.37;100.00
5595;BME280;1003;48.002;7.788;2023-07-13T00:27:10;98879.22;;;20.36;100.00
5595;BME280;1003;48.002;7.788;2023-07-13T00:29:37;98903.03;;;20.37;100.00
5595;BME280;1003;48.002;7.788;2023-07-13T00:32:08;98923.34;;;20.38;100.00
5595;BME280;1003;48.002;7.788;2023-07-13T00:34:37;98928.31;;;20.41;100.00
5595;BME280;1003;48.002;7.788;2023-07-13T00:37:05;98903.59;;;20.42;100.00
5595;BME280;1003;48.002;7.788;2023-07-13T00:39:33;98869.59;;;20.41;100.00
5595;BME280;1003;48.002;7.788;2023-07-13T00:42:03;98853.53;;;20.39;100.00
5595;BME280;1003;48.002;7.788;2023-07-13T00:44:30;98840.84;;;20.38;100.00
5595;BME280;1003;48.002;7.788;2023-07-13T00:46:57;98833.28;;;20.36;100.00
5595;BME280;1003;48.002;7.788;2023-07-13T00:49:27;98808.09;;;20.30;100.00
5595;BME280;1003;48.002;7.788;2023-07-13T00:52:00;98739.88;;;20.18;100.00
5595;BME280;1003;48.002;7.788;2023-07-13T00:54:35;98667.03;;;20.12;100.00
5595;BME280;1003;48.002;7.788;2023-07-13T00:57:09;98620.47;;;20.09;100.00
5595;BME280;1003;48.002;7.788;2023-07-13T00:59:41;98566.97;;;19.93;100.00
5595;BME280;1003;48.002;7.788;2023-07-13T01:02:10;98518.06;;;19.86;100.00
5595;BME280;1003;48.002;7.788;2023-07-13T01:04:37;98502.28;;;19.80;100.00
5595;BME280;1003;48.002;7.788;2023-07-13T01:07:06;98486.44;;;19.75;100.00
5595;BME280;1003;48.002;7.788;2023-07-13T01:09:34;98482.34;;;19.72;100.00
5595;BME280;1003;48.002;7.788;2023-07-13T01:12:01;98481.69;;;19.69;100.00
5595;BME280;1003;48.002;7.788;2023-07-13T01:14:30;98476.44;;;19.72;100.00
5595;BME280;1003;48.002;7.788;2023-07-13T01:16:58;98458.38;;;19.75;100.00
5595;BME280;1003;48.002;7.788;2023-07-13T01:19:33;98454.47;;;19.69;100.00
5595;BME280;1003;48.002;7.788;2023-07-13T01:22:06;98447.66;;;19.70;100.00
5595;BME280;1003;48.002;7.788;2023-07-13T01:24:35;98437.72;;;19.65;100.00
5595;BME280;1003;48.002;7.788;2023-07-13T01:27:03;98426.63;;;19.66;100.00
5595;BME280;1003;48.002;7.788;2023-07-13T01:29:33;98419.13;;;19.63;100.00
5595;BME280;1003;48.002;7.788;2023-07-13T01:32:01;98404.19;;;19.57;100.00
5595;BME280;1003;48.002;7.788;2023-07-13T01:34:28;98390.72;;;19.55;100.00
5595;BME280;1003;48.002;7.788;2023-07-13T01:36:55;98378.94;;;19.52;100.00
5595;BME280;1003;48.002;7.788;2023-07-13T01:39:23;98368.22;;;19.47;100.00
5595;BME280;1003;48.002;7.788;2023-07-13T01:41:50;98364.13;;;19.45;100.00
5595;BME280;1003;48.002;7.788;2023-07-13T01:44:17;98353.22;;;19.43;100.00
5595;BME280;1003;48.002;7.788;2023-07-13T01:46:44;98354.84;;;19.44;100.00
5595;BME280;1003;48.002;7.788;2023-07-13T01:49:12;98348.03;;;19.44;100.00
5595;BME280;1003;48.002;7.788;2023-07-13T01:51:38;98343.91;;;19.41;100.00
5595;BME280;1003;48.002;7.788;2023-07-13T01:54:05;98335.56;;;19.39;100.00
5595;BME280;1003;48.002;7.788;2023-07-13T01:56:34;98340.00;;;19.36;100.00
5595;BME280;1003;48.002;7.788;2023-07-13T01:59:01;98363.03;;;19.34;100.00
5595;BME280;1003;48.002;7.788;2023-07-13T02:01:28;98397.69;;;19.37;100.00
5595;BME280;1003;48.002;7.788;2023-07-13T02:03:55;98442.69;;;19.38;100.00
5595;BME280;1003;48.002;7.788;2023-07-13T02:06:22;98503.66;;;19.41;100.00
5595;BME280;1003;48.002;7.788;2023-07-13T02:08:49;98574.75;;;19.46;100.00
5595;BME280;1003;48.002;7.788;2023-07-13T02:11:16;98638.31;;;19.49;100.00
5595;BME280;1003;48.002;7.788;2023-07-13T02:13:45;98685.06;;;19.48;100.00
5595;BME280;1003;48.002;7.788;2023-07-13T02:16:12;98720.84;;;19.46;100.00
5595;BME280;1003;48.002;7.788;2023-07-13T02:18:39;98748.06;;;19.46;100.00
5595;BME280;1003;48.002;7.788;2023-07-13T02:21:06;98752.34;;;19.45;100.00
5595;BME280;1003;48.002;7.788;2023-07-13T02:23:33;98762.53;;;19.45;100.00
5595;BME280;1003;48.002;7.788;2023-07-13T02:26:03;98786.31;;;19.46;100.00
5595;BME280;1003;48.002;7.788;2023-07-13T02:28:30;98804.97;;;19.46;100.00
5595;BME280;1003;48.002;7.788;2023-07-13T02:31:07;98815.06;;;19.48;100.00
5595;BME280;1003;48.002;7.788;2023-07-13T02:33:34;98832.09;;;19.47;100.00
5595;BME280;1003;48.002;7.788;2023-07-13T02:36:02;98849.94;;;19.47;100.00
5595;BME280;1003;48.002;7.788;2023-07-13T02:38:29;98853.31;;;19.48;100.00
5595;BME280;1003;48.002;7.788;2023-07-13T02:40:59;98861.88;;;19.47;100.00
5595;BME280;1003;48.002;7.788;2023-07-13T02:43:27;98857.09;;;19.40;100.00
5595;BME280;1003;48.002;7.788;2023-07-13T02:45:55;98853.22;;;19.33;100.00
5595;BME280;1003;48.002;7.788;2023-07-13T02:48:23;98833.38;;;19.23;100.00
5595;BME280;1003;48.002;7.788;2023-07-13T02:50:50;98823.22;;;19.05;100.00
5595;BME280;1003;48.002;7.788;2023-07-13T02:53:17;98810.13;;;18.96;100.00
5595;BME280;1003;48.002;7.788;2023-07-13T02:55:44;98796.88;;;18.89;100.00
5595;BME280;1003;48.002;7.788;2023-07-13T02:58:13;98770.97;;;18.81;100.00
5595;BME280;1003;48.002;7.788;2023-07-13T03:00:42;98748.38;;;18.75;100.00
5595;BME280;1003;48.002;7.788;2023-07-13T03:03:11;98723.22;;;18.69;100.00
5595;BME280;1003;48.002;7.788;2023-07-13T03:05:42;98701.41;;;18.63;100.00
5595;BME280;1003;48.002;7.788;2023-07-13T03:08:11;98673.78;;;18.55;100.00
5595;BME280;1003;48.002;7.788;2023-07-13T03:10:38;98669.59;;;18.54;100.00
5595;BME280;1003;48.002;7.788;2023-07-13T03:13:06;98648.50;;;18.52;100.00
5595;BME280;1003;48.002;7.788;2023-07-13T03:15:33;98634.19;;;18.50;100.00
5595;BME280;1003;48.002;7.788;2023-07-13T03:18:01;98612.19;;;18.49;100.00
5595;BME280;1003;48.002;7.788;2023-07-13T03:20:31;98598.88;;;18.44;100.00
5595;BME280;1003;48.002;7.788;2023-07-13T03:23:00;98573.63;;;18.41;100.00
5595;BME280;1003;48.002;7.788;2023-07-13T03:25:27;98546.84;;;18.33;100.00
5595;BME280;1003;48.002;7.788;2023-07-13T03:27:54;98529.84;;;18.34;100.00
5595;BME280;1003;48.002;7.788;2023-07-13T03:30:21;98513.13;;;18.30;100.00
5595;BME280;1003;48.002;7.788;2023-07-13T03:32:48;98518.59;;;18.22;100.00
5595;BME280;1003;48.002;7.788;2023-07-13T03:35:16;98510.28;;;18.19;100.00
5595;BME280;1003;48.002;7.788;2023-07-13T03:37:43;98503.88;;;18.12;100.00
5595;BME280;1003;48.002;7.788;2023-07-13T03:40:13;98497.38;;;18.06;100.00
5595;BME280;1003;48.002;7.788;2023-07-13T03:42:40;98498.69;;;17.97;100.00
5595;BME280;1003;48.002;7.788;2023-07-13T03:45:08;98490.84;;;17.84;100.00
5595;BME280;1003;48.002;7.788;2023-07-13T03:47:35;98483.41;;;17.81;100.00
5595;BME280;1003;48.002;7.788;2023-07-13T03:50:03;98462.97;;;17.83;100.00
5595;BME280;1003;48.002;7.788;2023-07-13T03:52:30;98457.81;;;17.84;100.00
5595;BME280;1003;48.002;7.788;2023-07-13T03:54:57;98448.94;;;17.76;100.00
5595;BME280;1003;48.002;7.788;2023-07-13T03:57:25;98453.47;;;17.69;100.00
5595;BME280;1003;48.002;7.788;2023-07-13T03:59:53;98452.88;;;17.64;100.00
5595;BME280;1003;48.002;7.788;2023-07-13T04:02:20;98453.59;;;17.50;100.00
5595;BME280;1003;48.002;7.788;2023-07-13T04:04:47;98455.53;;;17.45;100.00
5595;BME280;1003;48.002;7.788;2023-07-13T04:07:14;98455.53;;;17.45;100.00
5595;BME280;1003;48.002;7.788;2023-07-13T04:09:41;98476.53;;;17.49;100.00
5595;BME280;1003;48.002;7.788;2023-07-13T04:12:08;98493.84;;;17.58;100.00
5595;BME280;1003;48.002;7.788;2023-07-13T04:14:37;98490.56;;;17.73;100.00
5595;BME280;1003;48.002;7.788;2023-07-13T04:17:05;98484.03;;;17.85;100.00
5595;BME280;1003;48.002;7.788;2023-07-13T04:19:32;98462.03;;;18.01;100.00
5595;BME280;1003;48.002;7.788;2023-07-13T04:21:59;98450.91;;;18.20;100.00
5595;BME280;1003;48.002;7.788;2023-07-13T04:24:26;98438.19;;;18.35;100.00
5595;BME280;1003;48.002;7.788;2023-07-13T04:26:53;98430.63;;;18.50;100.00
5595;BME280;1003;48.002;7.788;2023-07-13T04:29:20;98448.84;;;18.58;100.00
5595;BME280;1003;48.002;7.788;2023-07-13T04:31:48;98472.56;;;18.58;100.00
5595;BME280;1003;48.002;7.788;2023-07-13T04:34:15;98489.38;;;18.61;100.00
5595;BME280;1003;48.002;7.788;2023-07-13T04:36:42;98514.19;;;18.57;100.00
5595;BME280;1003;48.002;7.788;2023-07-13T04:39:09;98527.75;;;18.58;100.00
5595;BME280;1003;48.002;7.788;2023-07-13T04:41:36;98533.81;;;18.55;100.00
5595;BME280;1003;48.002;7.788;2023-07-13T04:44:04;98542.19;;;18.57;100.00
5595;BME280;1003;48.002;7.788;2023-07-13T04:46:31;98535.13;;;18.62;100.00
5595;BME280;1003;48.002;7.788;2023-07-13T04:49:00;98535.88;;;18.65;100.00
5595;BME280;1003;48.002;7.788;2023-07-13T04:51:29;98535.97;;;18.63;100.00
5595;BME280;1003;48.002;7.788;2023-07-13T04:53:57;98545.50;;;18.75;100.00
5595;BME280;1003;48.002;7.788;2023-07-13T04:56:24;98558.72;;;18.98;100.00
5595;BME280;1003;48.002;7.788;2023-07-13T04:58:51;98569.53;;;19.33;100.00
5595;BME280;1003;48.002;7.788;2023-07-13T05:01:18;98593.25;;;19.49;100.00
5595;BME280;1003;48.002;7.788;2023-07-13T05:03:45;98613.81;;;19.62;100.00
5595;BME280;1003;48.002;7.788;2023-07-13T05:06:21;98640.44;;;20.02;100.00
5595;BME280;1003;48.002;7.788;2023-07-13T05:08:48;98676.06;;;21.05;100.00
5595;BME280;1003;48.002;7.788;2023-07-13T05:11:15;98785.53;;;21.95;100.00
5595;BME280;1003;48.002;7.788;2023-07-13T05:13:45;98898.44;;;22.59;100.00
5595;BME280;1003;48.002;7.788;2023-07-13T05:16:13;98964.13;;;23.14;100.00
5595;BME280;1003;48.002;7.788;2023-07-13T05:18:40;99039.03;;;23.32;100.00
5595;BME280;1003;48.002;7.788;2023-07-13T05:21:09;99063.94;;;23.70;100.00
5595;BME280;1003;48.002;7.788;2023-07-13T05:23:39;99098.34;;;23.80;100.00
5595;BME280;1003;48.002;7.788;2023-07-13T05:26:07;99125.13;;;23.63;100.00
5595;BME280;1003;48.002;7.788;2023-07-13T05:28:34;99141.94;;;23.13;100.00
5595;BME280;1003;48.002;7.788;2023-07-13T05:31:02;99144.44;;;22.86;100.00
5595;BME280;1003;48.002;7.788;2023-07-13T05:33:29;99143.13;;;23.62;100.00
5595;BME280;1003;48.002;7.788;2023-07-13T05:35:56;99149.44;;;24.35;100.00
5595;BME280;1003;48.002;7.788;2023-07-13T05:38:23;99162.75;;;24.92;100.00
5595;BME280;1003;48.002;7.788;2023-07-13T05:40:54;99170.91;;;25.22;100.00
5595;BME280;1003;48.002;7.788;2023-07-13T05:43:22;99166.00;;;25.19;100.00
5595;BME280;1003;48.002;7.788;2023-07-13T05:45:51;99158.97;;;25.21;100.00
5595;BME280;1003;48.002;7.788;2023-07-13T05:48:18;99162.41;;;25.33;100.00
5595;BME280;1003;48.002;7.788;2023-07-13T05:50:46;99174.31;;;25.47;100.00
5595;BME280;1003;48.002;7.788;2023-07-13T05:53:13;99173.78;;;25.65;100.00
5595;BME280;1003;48.002;7.788;2023-07-13T05:55:41;99176.22;;;25.80;100.00
5595;BME280;1003;48.002;7.788;2023-07-13T05:58:11;99174.16;;;26.42;100.00
5595;BME280;1003;48.002;7.788;2023-07-13T06:00:45;99170.75;;;26.42;100.00
5595;BME280;1003;48.002;7.788;2023-07-13T06:03:19;99177.22;;;26.59;100.00
5595;BME280;1003;48.002;7.788;2023-07-13T06:05:46;99178.03;;;26.71;100.00
5595;BME280;1003;48.002;7.788;2023-07-13T06:08:13;99177.91;;;26.61;100.00
5595;BME280;1003;48.002;7.788;2023-07-13T06:10:40;99183.69;;;26.07;100.00
5595;BME280;1003;48.002;7.788;2023-07-13T06:13:07;99180.97;;;26.08;100.00
5595;BME280;1003;48.002;7.788;2023-07-13T06:15:35;99179.91;;;25.88;100.00
5595;BME280;1003;48.002;7.788;2023-07-13T06:18:03;99176.63;;;25.98;100.00
5595;BME280;1003;48.002;7.788;2023-07-13T06:20:34;99168.50;;;26.26;100.00
5595;BME280;1003;48.002;7.788;2023-07-13T06:23:01;99175.69;;;26.45;100.00
5595;BME280;1003;48.002;7.788;2023-07-13T06:25:29;99167.47;;;26.74;100.00
5595;BME280;1003;48.002;7.788;2023-07-13T06:27:56;99178.84;;;26.60;100.00
5595;BME280;1003;48.002;7.788;2023-07-13T06:30:23;99165.47;;;26.32;100.00
5595;BME280;1003;48.002;7.788;2023-07-13T06:32:51;99166.50;;;26.30;100.00
5595;BME280;1003;48.002;7.788;2023-07-13T06:35:19;99158.81;;;26.52;100.00
5595;BME280;1003;48.002;7.788;2023-07-13T06:37:46;99153.38;;;27.00;100.00
5595;BME280;1003;48.002;7.788;2023-07-13T06:40:14;99148.63;;;27.28;100.00
5595;BME280;1003;48.002;7.788;2023-07-13T06:42:41;99160.75;;;27.48;100.00
5595;BME280;1003;48.002;7.788;2023-07-13T06:45:12;99165.16;;;27.68;100.00
5595;BME280;1003;48.002;7.788;2023-07-13T06:47:39;99164.75;;;27.84;100.00
5595;BME280;1003;48.002;7.788;2023-07-13T06:50:08;99172.28;;;27.44;100.00
5595;BME280;1003;48.002;7.788;2023-07-13T06:52:38;99172.78;;;27.38;100.00
5595;BME280;1003;48.002;7.788;2023-07-13T06:55:13;99171.03;;;27.59;100.00
5595;BME280;1003;48.002;7.788;2023-07-13T06:57:47;99160.16;;;27.88;100.00
5595;BME280;1003;48.002;7.788;2023-07-13T07:00:17;99160.03;;;27.89;100.00
5595;BME280;1003;48.002;7.788;2023-07-13T07:02:46;99173.09;;;27.77;100.00
5595;BME280;1003;48.002;7.788;2023-07-13T07:05:17;99165.19;;;28.10;100.00
5595;BME280;1003;48.002;7.788;2023-07-13T07:07:53;99166.22;;;28.29;100.00
5595;BME280;1003;48.002;7.788;2023-07-13T07:10:24;99167.84;;;28.50;100.00
5595;BME280;1003;48.002;7.788;2023-07-13T07:12:51;99170.28;;;28.42;100.00
5595;BME280;1003;48.002;7.788;2023-07-13T07:15:22;99170.66;;;28.68;100.00
5595;BME280;1003;48.002;7.788;2023-07-13T07:17:52;99175.41;;;29.03;100.00
5595;BME280;1003;48.002;7.788;2023-07-13T07:20:22;99178.31;;;29.39;100.00
5595;BME280;1003;48.002;7.788;2023-07-13T07:22:49;99183.91;;;29.35;100.00
5595;BME280;1003;48.002;7.788;2023-07-13T07:25:16;99205.06;;;28.90;99.63
5595;BME280;1003;48.002;7.788;2023-07-13T07:27:44;99201.47;;;28.50;99.02
5595;BME280;1003;48.002;7.788;2023-07-13T07:30:12;99200.53;;;28.51;100.00
5595;BME280;1003;48.002;7.788;2023-07-13T07:32:40;99203.38;;;28.28;100.00
5595;BME280;1003;48.002;7.788;2023-07-13T07:35:08;99216.94;;;28.20;99.85
5595;BME280;1003;48.002;7.788;2023-07-13T07:37:37;99203.38;;;28.28;98.97
5595;BME280;1003;48.002;7.788;2023-07-13T07:40:07;99207.53;;;28.40;96.66
5595;BME280;1003;48.002;7.788;2023-07-13T07:42:34;99213.00;;;28.46;97.62
5595;BME280;1003;48.002;7.788;2023-07-13T07:45:01;99201.66;;;28.59;100.00
5595;BME280;1003;48.002;7.788;2023-07-13T07:47:28;99204.31;;;29.09;100.00
5595;BME280;1003;48.002;7.788;2023-07-13T07:49:55;99204.63;;;29.35;99.28
5595;BME280;1003;48.002;7.788;2023-07-13T07:52:22;99197.81;;;29.34;100.00
5595;BME280;1003;48.002;7.788;2023-07-13T07:54:51;99217.59;;;29.44;98.95
5595;BME280;1003;48.002;7.788;2023-07-13T07:57:18;99213.88;;;29.18;97.75
5595;BME280;1003;48.002;7.788;2023-07-13T07:59:45;99214.69;;;28.57;96.45
5595;BME280;1003;48.002;7.788;2023-07-13T08:02:12;99214.84;;;28.86;96.19
5595;BME280;1003;48.002;7.788;2023-07-13T08:04:39;99203.59;;;28.97;100.00
5595;BME280;1003;48.002;7.788;2023-07-13T08:07:08;99207.75;;;28.88;100.00
5595;BME280;1003;48.002;7.788;2023-07-13T08:09:35;99206.56;;;28.62;100.00
5595;BME280;1003;48.002;7.788;2023-07-13T08:12:05;99213.44;;;28.82;100.00
5595;BME280;1003;48.002;7.788;2023-07-13T08:14:33;99221.88;;;28.74;96.30
5595;BME280;1003;48.002;7.788;2023-07-13T08:17:00;99225.09;;;28.67;93.83
5595;BME280;1003;48.002;7.788;2023-07-13T08:19:28;99229.78;;;28.83;90.69
5595;BME280;1003;48.002;7.788;2023-07-13T08:21:55;99245.78;;;28.36;82.39
5595;BME280;1003;48.002;7.788;2023-07-13T08:24:23;99237.38;;;28.44;87.62
5595;BME280;1003;48.002;7.788;2023-07-13T08:26:51;99229.38;;;28.77;91.10
5595;BME280;1003;48.002;7.788;2023-07-13T08:29:20;99244.38;;;28.53;80.38
5595;BME280;1003;48.002;7.788;2023-07-13T08:31:47;99239.16;;;28.74;81.76
5595;BME280;1003;48.002;7.788;2023-07-13T08:34:14;99245.34;;;28.62;79.61
5595;BME280;1003;48.002;7.788;2023-07-13T08:36:41;99240.84;;;28.33;85.96
5595;BME280;1003;48.002;7.788;2023-07-13T08:39:08;99234.59;;;28.15;91.78
5595;BME280;1003;48.002;7.788;2023-07-13T08:41:36;99228.97;;;27.89;90.57
5595;BME280;1003;48.002;7.788;2023-07-13T08:44:16;99223.00;;;27.45;100.00
5595;BME280;1003;48.002;7.788;2023-07-13T08:46:48;99220.88;;;27.39;98.74
5595;BME280;1003;48.002;7.788;2023-07-13T08:49:21;99224.19;;;27.30;95.67
5595;BME280;1003;48.002;7.788;2023-07-13T08:51:56;99226.69;;;26.75;94.72
5595;BME280;1003;48.002;7.788;2023-07-13T08:54:29;99216.09;;;26.45;100.00
5595;BME280;1003;48.002;7.788;2023-07-13T08:57:01;99220.91;;;26.03;100.00
5595;BME280;1003;48.002;7.788;2023-07-13T08:59:32;99214.47;;;26.88;100.00
5595;BME280;1003;48.002;7.788;2023-07-13T09:02:26;99211.19;;;27.20;100.00
5595;BME280;1003;48.002;7.788;2023-07-13T09:04:59;99211.41;;;27.60;100.00
5595;BME280;1003;48.002;7.788;2023-07-13T09:07:43;99212.09;;;28.06;100.00
5595;BME280;1003;48.002;7.788;2023-07-13T09:10:20;99222.50;;;28.36;95.04
5595;BME280;1003;48.002;7.788;2023-07-13T09:13:04;99227.53;;;28.17;92.98
5595;BME280;1003;48.002;7.788;2023-07-13T09:15:39;99228.81;;;27.58;92.09
5595;BME280;1003;48.002;7.788;2023-07-13T09:18:16;99224.31;;;27.17;97.87
5595;BME280;1003;48.002;7.788;2023-07-13T09:20:51;99211.78;;;26.79;100.00
5595;BME280;1003;48.002;7.788;2023-07-13T09:23:23;99205.59;;;26.81;100.00
5595;BME280;1003;48.002;7.788;2023-07-13T09:26:00;99201.94;;;26.84;100.00
5595;BME280;1003;48.002;7.788;2023-07-13T09:28:34;99200.66;;;26.78;100.00
5595;BME280;1003;48.002;7.788;2023-07-13T09:31:07;99204.03;;;27.01;100.00
5595;BME280;1003;48.002;7.788;2023-07-13T09:33:39;99204.72;;;27.26;100.00
5595;BME280;1003;48.002;7.788;2023-07-13T09:36:20;99216.84;;;27.14;100.00
5595;BME280;1003;48.002;7.788;2023-07-13T09:38:59;99227.03;;;26.82;89.48
5595;BME280;1003;48.002;7.788;2023-07-13T09:41:37;99224.94;;;26.87;91.50
5595;BME280;1003;48.002;7.788;2023-07-13T09:44:10;99219.28;;;27.04;93.28
5595;BME280;1003;48.002;7.788;2023-07-13T09:46:39;99216.81;;;27.25;94.78
5595;BME280;1003;48.002;7.788;2023-07-13T09:49:11;99213.22;;;27.48;95.18
5595;BME280;1003;48.002;7.788;2023-07-13T09:51:40;99210.72;;;27.58;96.11
5595;BME280;1003;48.002;7.788;2023-07-13T09:54:20;99196.44;;;27.86;98.76
5595;BME280;1003;48.002;7.788;2023-07-13T09:56:47;99211.06;;;27.65;94.58
5595;BME280;1003;48.002;7.788;2023-07-13T09:59:23;99205.03;;;27.43;98.48
5595;BME280;1003;48.002;7.788;2023-07-13T10:01:50;99227.84;;;26.49;95.03
5595;BME280;1003;48.002;7.788;2023-07-13T10:04:30;99206.97;;;26.63;100.00
5595;BME280;1003;48.002;7.788;2023-07-13T10:07:06;99197.72;;;26.94;100.00
5595;BME280;1003;48.002;7.788;2023-07-13T10:09:33;99218.13;;;26.97;97.42
5595;BME280;1003;48.002;7.788;2023-07-13T10:12:01;99210.28;;;26.54;95.28
5595;BME280;1003;48.002;7.788;2023-07-13T10:14:29;99210.09;;;26.33;99.50
5595;BME280;1003;48.002;7.788;2023-07-13T10:17:00;99221.31;;;25.85;95.80
5595;BME280;1003;48.002;7.788;2023-07-13T10:19:34;99214.97;;;26.13;98.42
5595;BME280;1003;48.002;7.788;2023-07-13T10:22:14;99208.16;;;26.48;98.41
5595;BME280;1003;48.002;7.788;2023-07-13T10:24:47;99209.53;;;26.52;97.03
5595;BME280;1003;48.002;7.788;2023-07-13T10:27:18;99218.94;;;26.64;88.08
5595;BME280;1003;48.002;7.788;2023-07-13T10:29:51;99215.91;;;26.81;92.24
5595;BME280;1003;48.002;7.788;2023-07-13T10:32:24;99221.50;;;26.98;83.14
5595;BME280;1003;48.002;7.788;2023-07-13T10:34:53;99222.94;;;27.24;81.27
5595;BME280;1003;48.002;7.788;2023-07-13T10:37:27;99225.81;;;27.42;87.01
5595;BME280;1003;48.002;7.788;2023-07-13T10:39:57;99221.25;;;27.34;81.42
5595;BME280;1003;48.002;7.788;2023-07-13T10:42:40;99240.75;;;27.16;75.76
5595;BME280;1003;48.002;7.788;2023-07-13T10:45:15;99233.00;;;26.71;83.62
5595;BME280;1003;48.002;7.788;2023-07-13T10:47:43;99236.38;;;26.49;85.03
5595;BME280;1003;48.002;7.788;2023-07-13T10:50:19;99230.34;;;26.26;90.19
5595;BME280;1003;48.002;7.788;2023-07-13T10:52:50;99228.34;;;26.30;93.65
5595;BME280;1003;48.002;7.788;2023-07-13T10:55:35;99231.28;;;26.36;81.04
5595;BME280;1003;48.002;7.788;2023-07-13T10:58:13;99232.00;;;26.27;76.22
5595;BME280;1003;48.002;7.788;2023-07-13T11:00:49;99234.28;;;26.43;80.36
5595;BME280;1003;48.002;7.788;2023-07-13T11:03:20;99229.13;;;26.88;85.14
5595;BME280;1003;48.002;7.788;2023-07-13T11:06:08;99228.66;;;27.16;83.97
5595;BME280;1003;48.002;7.788;2023-07-13T11:08:50;99223.25;;;27.31;84.50
5595;BME280;1003;48.002;7.788;2023-07-13T11:11:36;99231.19;;;27.39;79.66
5595;BME280;1003;48.002;7.788;2023-07-13T11:14:14;99230.44;;;27.16;76.36
5595;BME280;1003;48.002;7.788;2023-07-13T11:16:52;99223.38;;;26.84;81.95
5595;BME280;1003;48.002;7.788;2023-07-13T11:19:42;99225.63;;;26.66;75.64
5595;BME280;1003;48.002;7.788;2023-07-13T11:22:16;99220.34;;;26.57;76.38
5595;BME280;1003;48.002;7.788;2023-07-13T11:25:27;99216.25;;;26.88;83.59
5595;BME280;1003;48.002;7.788;2023-07-13T11:28:22;99208.97;;;26.93;80.60
5595;BME280;1003;48.002;7.788;2023-07-13T11:31:01;99212.84;;;26.99;83.02
5595;BME280;1003;48.002;7.788;2023-07-13T11:33:58;99208.38;;;26.67;79.59
5595;BME280;1003;48.002;7.788;2023-07-13T11:36:36;99203.22;;;26.45;81.30
5595;BME280;1003;48.002;7.788;2023-07-13T11:39:20;99204.19;;;26.20;76.01
5595;BME280;1003;48.002;7.788;2023-07-13T11:41:53;99201.84;;;26.16;87.24
5595;BME280;1003;48.002;7.788;2023-07-13T11:44:25;99196.94;;;26.25;86.42
5595;BME280;1003;48.002;7.788;2023-07-13T11:46:55;99199.22;;;26.63;87.07
5595;BME280;1003;48.002;7.788;2023-07-13T11:49:25;99188.31;;;27.15;97.77
5595;BME280;1003;48.002;7.788;2023-07-13T11:51:53;99186.00;;;27.56;98.56
5595;BME280;1003;48.002;7.788;2023-07-13T11:54:28;99186.63;;;27.69;90.14
5595;BME280;1003;48.002;7.788;2023-07-13T11:56:58;99186.84;;;27.98;89.66
5595;BME280;1003;48.002;7.788;2023-07-13T11:59:29;99191.41;;;28.06;90.74
5595;BME280;1003;48.002;7.788;2023-07-13T12:01:58;99185.66;;;28.23;87.46
5595;BME280;1003;48.002;7.788;2023-07-13T12:04:28;99187.00;;;28.38;88.09
5595;BME280;1003;48.002;7.788;2023-07-13T12:06:58;99198.72;;;28.21;84.23
5595;BME280;1003;48.002;7.788;2023-07-13T12:09:34;99198.78;;;28.31;87.24
5595;BME280;1003;48.002;7.788;2023-07-13T12:12:03;99188.81;;;28.47;89.59
5595;BME280;1003;48.002;7.788;2023-07-13T12:14:34;99206.91;;;27.85;79.05
5595;BME280;1003;48.002;7.788;2023-07-13T12:17:01;99202.66;;;27.52;80.91
5595;BME280;1003;48.002;7.788;2023-07-13T12:19:32;99195.16;;;27.48;85.37
5595;BME280;1003;48.002;7.788;2023-07-13T12:21:59;99195.59;;;27.10;84.63
5595;BME280;1003;48.002;7.788;2023-07-13T12:24:27;99196.84;;;27.27;87.15
5595;BME280;1003;48.002;7.788;2023-07-13T12:27:02;99196.41;;;27.22;86.82
5595;BME280;1003;48.002;7.788;2023-07-13T12:29:32;99188.16;;;27.39;95.33
5595;BME280;1003;48.002;7.788;2023-07-13T12:31:59;99180.44;;;27.71;96.95
5595;BME280;1003;48.002;7.788;2023-07-13T12:34:27;99180.75;;;27.78;95.01
5595;BME280;1003;48.002;7.788;2023-07-13T12:36:56;99186.91;;;28.08;94.68
5595;BME280;1003;48.002;7.788;2023-07-13T12:39:33;99182.56;;;28.08;92.97
5595;BME280;1003;48.002;7.788;2023-07-13T12:42:20;99191.47;;;28.15;87.88
5595;BME280;1003;48.002;7.788;2023-07-13T12:44:51;99194.97;;;28.14;84.77
5595;BME280;1003;48.002;7.788;2023-07-13T12:47:20;99192.97;;;28.18;89.64
5595;BME280;1003;48.002;7.788;2023-07-13T12:49:50;99180.50;;;28.44;95.75
5595;BME280;1003;48.002;7.788;2023-07-13T12:52:23;99195.47;;;28.29;89.54
5595;BME280;1003;48.002;7.788;2023-07-13T12:54:55;99198.00;;;28.19;87.27
5595;BME280;1003;48.002;7.788;2023-07-13T12:57:24;99194.28;;;27.91;85.01
5595;BME280;1003;48.002;7.788;2023-07-13T12:59:53;99187.50;;;27.90;85.49
5595;BME280;1003;48.002;7.788;2023-07-13T13:02:29;99183.50;;;27.86;87.18
5595;BME280;1003;48.002;7.788;2023-07-13T13:04:57;99187.25;;;27.72;88.38
5595;BME280;1003;48.002;7.788;2023-07-13T13:07:26;99185.13;;;27.34;88.24
5595;BME280;1003;48.002;7.788;2023-07-13T13:09:53;99185.50;;;27.18;91.08
5595;BME280;1003;48.002;7.788;2023-07-13T13:12:23;99179.63;;;27.05;90.08
5595;BME280;1003;48.002;7.788;2023-07-13T13:14:52;99164.66;;;26.88;95.71
5595;BME280;1003;48.002;7.788;2023-07-13T13:17:23;99156.66;;;27.02;100.00
5595;BME280;1003;48.002;7.788;2023-07-13T13:19:53;99165.72;;;27.08;96.57
5595;BME280;1003;48.002;7.788;2023-07-13T13:22:21;99172.50;;;27.09;98.72
5595;BME280;1003;48.002;7.788;2023-07-13T13:24:52;99169.09;;;27.19;100.00
5595;BME280;1003;48.002;7.788;2023-07-13T13:27:21;99160.44;;;27.41;100.00
5595;BME280;1003;48.002;7.788;2023-07-13T13:29:51;99164.88;;;27.51;98.24
5595;BME280;1003;48.002;7.788;2023-07-13T13:32:18;99177.50;;;27.21;92.58